Time;durP1;ratioP1;P1;durP2;ratioP2;P2;SDS_P1;SDS_P2;PMS_P1;PMS_P2;Temp;Humidity;BMP_temperature;BMP_pressure;BME280_temperature;BME280_humidity;BME280_pressure;Samples;Min_cycle;Max_cycle;Signal;HPM_P1;HPM_P2
2021/10/17 00:01:04;;;;;;;15.23;12.23;;;9.00;99.90;;;;;;5096904;28;20195;-69
2021/10/17 00:03:32;;;;;;;14.40;9.93;;;8.90;99.90;;;;;;5095425;28;20204;-69
2021/10/17 00:06:00;;;;;;;11.63;8.97;;;8.90;99.90;;;;;;5095497;28;20200;-69
2021/10/17 00:08:28;;;;;;;12.50;9.77;;;8.90;99.90;;;;;;5094982;28;20691;-69
2021/10/17 00:10:56;;;;;;;13.70;9.63;;;8.90;99.90;;;;;;5094511;28;20322;-69
2021/10/17 00:13:25;;;;;;;11.33;8.67;;;8.90;99.90;;;;;;5095193;28;20200;-69
2021/10/17 00:15:53;;;;;;;11.57;9.10;;;8.90;99.90;;;;;;5095088;28;20211;-69
2021/10/17 00:18:21;;;;;;;12.60;8.57;;;8.90;99.90;;;;;;5094743;28;20287;-69
2021/10/17 00:20:50;;;;;;;10.77;8.73;;;8.90;99.90;;;;;;5094898;28;20199;-69
2021/10/17 00:23:18;;;;;;;15.47;10.43;;;8.90;99.90;;;;;;5095071;28;20214;-69
2021/10/17 00:25:46;;;;;;;14.07;10.27;;;8.90;99.90;;;;;;5094444;28;20754;-68
2021/10/17 00:28:14;;;;;;;12.43;10.50;;;8.90;99.90;;;;;;5094756;28;20291;-69
2021/10/17 00:30:43;;;;;;;15.27;11.57;;;8.90;99.90;;;;;;5094617;28;20861;-69
2021/10/17 00:33:11;;;;;;;13.57;10.90;;;8.80;99.90;;;;;;5094719;28;20231;-68
2021/10/17 00:35:39;;;;;;;15.10;12.13;;;8.90;99.90;;;;;;5094465;28;20742;-68
2021/10/17 00:38:07;;;;;;;15.30;11.53;;;8.90;99.90;;;;;;5094429;28;20239;-68
2021/10/17 00:40:36;;;;;;;19.17;13.73;;;8.80;99.90;;;;;;5094391;28;20208;-69
2021/10/17 00:43:04;;;;;;;19.43;14.53;;;8.80;99.90;;;;;;5094570;28;20210;-69
2021/10/17 00:45:36;;;;;;;18.17;14.47;;;8.80;99.90;;;;;;5094559;28;20189;-69
2021/10/17 00:48:06;;;;;;;17.30;12.50;;;8.90;99.90;;;;;;5094193;28;20675;-68
2021/10/17 00:50:34;;;;;;;14.77;10.63;;;8.80;99.90;;;;;;5094254;28;20216;-68
2021/10/17 00:53:02;;;;;;;13.90;9.50;;;8.80;99.90;;;;;;5094160;28;20314;-69
2021/10/17 00:55:30;;;;;;;13.70;8.97;;;8.80;99.90;;;;;;5093984;28;20218;-69
2021/10/17 00:58:18;;;;;;;14.23;8.37;;;8.80;99.90;;;;;;5093631;28;20212;-69
2021/10/17 01:00:46;;;;;;;10.40;7.97;;;8.70;99.90;;;;;;5093952;28;20211;-70
2021/10/17 01:03:16;;;;;;;10.33;7.90;;;8.80;99.90;;;;;;5093983;28;20269;-68
2021/10/17 01:05:44;;;;;;;11.90;9.30;;;8.80;99.90;;;;;;5093740;28;20754;-67
2021/10/17 01:08:12;;;;;;;13.90;8.50;;;8.80;99.90;;;;;;5093809;28;20198;-69
2021/10/17 01:10:41;;;;;;;11.03;8.27;;;8.80;99.90;;;;;;5093056;28;20268;-68
2021/10/17 01:13:15;;;;;;;10.03;7.70;;;8.70;99.90;;;;;;5093908;28;20204;-68
2021/10/17 01:15:43;;;;;;;12.77;8.53;;;8.70;99.90;;;;;;5093463;28;20313;-69
2021/10/17 01:18:10;;;;;;;13.60;7.93;;;8.70;99.90;;;;;;5093681;28;20648;-69
2021/10/17 01:20:40;;;;;;;11.10;8.50;;;8.70;99.90;;;;;;5093802;28;20275;-69
2021/10/17 01:23:08;;;;;;;11.77;8.37;;;8.70;99.90;;;;;;5093511;28;20647;-69
2021/10/17 01:25:36;;;;;;;13.73;8.77;;;8.70;99.90;;;;;;5093429;28;20228;-69
2021/10/17 01:28:04;;;;;;;11.97;8.00;;;8.80;99.90;;;;;;5093759;28;20282;-69
2021/10/17 01:30:33;;;;;;;14.70;8.10;;;8.80;99.90;;;;;;5093914;28;20218;-69
2021/10/17 01:33:02;;;;;;;10.90;8.37;;;8.80;99.90;;;;;;5093669;28;20206;-68
2021/10/17 01:35:30;;;;;;;10.20;6.93;;;8.80;99.90;;;;;;5093429;28;20218;-69
2021/10/17 01:37:59;;;;;;;10.13;7.83;;;8.80;99.90;;;;;;5093865;28;20204;-70
2021/10/17 01:40:27;;;;;;;10.60;8.53;;;8.70;99.90;;;;;;5093399;28;20200;-69
2021/10/17 01:42:55;;;;;;;12.47;8.43;;;8.80;99.90;;;;;;5093246;28;20211;-69
2021/10/17 01:45:23;;;;;;;12.47;8.43;;;8.80;99.90;;;;;;5093126;28;20243;-68
2021/10/17 01:47:53;;;;;;;14.53;8.50;;;8.80;99.90;;;;;;5093467;28;20207;-69
2021/10/17 01:50:22;;;;;;;11.33;8.13;;;8.80;99.90;;;;;;5093610;28;20420;-70
2021/10/17 01:52:49;;;;;;;12.17;8.27;;;8.80;99.90;;;;;;5093609;28;20199;-70
2021/10/17 01:55:19;;;;;;;10.63;8.00;;;8.80;99.90;;;;;;5093023;28;20207;-69
2021/10/17 01:57:47;;;;;;;13.00;8.30;;;8.70;99.90;;;;;;5093607;28;20232;-69
2021/10/17 02:00:15;;;;;;;11.97;8.27;;;8.80;99.90;;;;;;5093366;28;20282;-69
2021/10/17 02:02:43;;;;;;;11.00;8.10;;;8.80;99.90;;;;;;5093023;28;20283;-69
2021/10/17 02:05:11;;;;;;;12.10;8.40;;;8.80;99.90;;;;;;5092442;28;20667;-68
2021/10/17 02:07:39;;;;;;;9.90;7.27;;;8.80;99.90;;;;;;5093289;28;20204;-70
2021/10/17 02:10:08;;;;;;;10.27;8.40;;;8.70;99.90;;;;;;5092394;28;20719;-70
2021/10/17 02:12:37;;;;;;;11.57;7.83;;;8.70;99.90;;;;;;5093175;28;20200;-69
2021/10/17 02:15:06;;;;;;;8.83;7.33;;;8.70;99.90;;;;;;5092893;28;20200;-69
2021/10/17 02:17:34;;;;;;;10.87;7.80;;;8.70;99.90;;;;;;5092999;28;20203;-68
2021/10/17 02:20:02;;;;;;;8.60;7.07;;;8.70;99.90;;;;;;5092998;28;20219;-69
2021/10/17 02:22:30;;;;;;;9.17;6.33;;;8.70;99.90;;;;;;5092883;28;20223;-69
2021/10/17 02:24:57;;;;;;;12.07;6.77;;;8.70;99.90;;;;;;5092824;28;20295;-68
2021/10/17 02:27:25;;;;;;;9.90;7.33;;;8.70;99.90;;;;;;5092936;28;20258;-68
2021/10/17 02:29:54;;;;;;;8.47;6.53;;;8.70;99.90;;;;;;5092561;28;20266;-68
2021/10/17 02:32:22;;;;;;;12.10;7.10;;;8.70;99.90;;;;;;5092932;28;20579;-68
2021/10/17 02:34:50;;;;;;;10.33;7.20;;;8.70;99.90;;;;;;5092993;28;20227;-69
2021/10/17 02:37:18;;;;;;;11.97;7.10;;;8.70;99.90;;;;;;5092473;28;20299;-69
2021/10/17 02:39:46;;;;;;;10.43;6.40;;;8.70;99.90;;;;;;5092835;28;20196;-71
2021/10/17 02:42:14;;;;;;;10.67;6.80;;;8.70;99.90;;;;;;5092379;28;20287;-69
2021/10/17 02:44:42;;;;;;;9.67;6.90;;;8.70;99.90;;;;;;5092446;28;20614;-69
2021/10/17 02:47:11;;;;;;;9.27;6.37;;;8.70;99.90;;;;;;5092467;28;20655;-69
2021/10/17 02:49:39;;;;;;;14.77;7.53;;;8.70;99.90;;;;;;5092666;28;20299;-69
2021/10/17 02:52:07;;;;;;;13.40;7.50;;;8.70;99.90;;;;;;5092549;28;20253;-69
2021/10/17 02:54:35;;;;;;;11.37;7.10;;;8.70;99.90;;;;;;5092220;28;20735;-69
2021/10/17 02:57:03;;;;;;;11.57;6.33;;;8.60;99.90;;;;;;5092497;28;20312;-70
2021/10/17 02:59:31;;;;;;;14.83;7.37;;;8.60;99.90;;;;;;5092371;28;20291;-68
2021/10/17 03:01:58;;;;;;;9.77;7.17;;;8.60;99.90;;;;;;5092383;28;20644;-68
2021/10/17 03:04:28;;;;;;;10.17;7.00;;;8.50;99.90;;;;;;5092623;28;20203;-68
2021/10/17 03:06:55;;;;;;;11.83;7.70;;;8.50;99.90;;;;;;5092282;28;20754;-68
2021/10/17 03:09:23;;;;;;;12.10;7.50;;;8.50;99.90;;;;;;5092141;28;20723;-68
2021/10/17 03:11:51;;;;;;;11.17;6.73;;;8.50;99.90;;;;;;5091950;28;20331;-68
2021/10/17 03:14:19;;;;;;;9.83;7.07;;;8.50;99.90;;;;;;5092166;28;20192;-69
2021/10/17 03:16:47;;;;;;;15.03;7.00;;;8.50;99.90;;;;;;5093538;28;20203;-68
2021/10/17 03:19:15;;;;;;;12.77;7.27;;;8.50;99.90;;;;;;5096049;28;20675;-69
2021/10/17 03:21:45;;;;;;;10.83;6.90;;;8.50;99.90;;;;;;5096395;28;20196;-69
2021/10/17 03:24:13;;;;;;;12.57;7.63;;;8.50;99.90;;;;;;5095946;28;20243;-69
2021/10/17 03:26:41;;;;;;;10.37;6.83;;;8.50;99.90;;;;;;5096127;28;20284;-68
2021/10/17 03:29:09;;;;;;;11.30;7.07;;;8.50;99.90;;;;;;5095720;28;20295;-69
2021/10/17 03:31:38;;;;;;;10.60;6.83;;;8.40;99.90;;;;;;5096133;28;20315;-70
2021/10/17 03:34:06;;;;;;;11.80;7.30;;;8.40;99.90;;;;;;5095752;28;20689;-68
2021/10/17 03:36:34;;;;;;;9.33;7.07;;;8.50;99.90;;;;;;5096051;28;20231;-68
2021/10/17 03:39:03;;;;;;;10.37;7.40;;;8.50;99.90;;;;;;5095959;28;20303;-70
2021/10/17 03:41:31;;;;;;;12.07;7.30;;;8.40;99.90;;;;;;5095655;28;20219;-68
2021/10/17 03:43:59;;;;;;;11.20;7.27;;;8.40;99.90;;;;;;5095650;28;20199;-69
2021/10/17 03:46:27;;;;;;;9.50;7.17;;;8.30;99.90;;;;;;5095735;28;20200;-69
2021/10/17 03:48:55;;;;;;;10.90;6.97;;;8.20;99.90;;;;;;5095586;28;20200;-69
2021/10/17 03:51:23;;;;;;;9.07;7.13;;;8.20;99.90;;;;;;5095713;28;20303;-68
2021/10/17 03:53:51;;;;;;;8.73;6.53;;;8.10;99.90;;;;;;5095392;28;20697;-68
2021/10/17 03:56:20;;;;;;;10.13;6.63;;;8.10;99.90;;;;;;5095492;28;20287;-69
2021/10/17 03:58:48;;;;;;;11.17;7.00;;;8.00;99.90;;;;;;5095357;28;20682;-69
2021/10/17 04:01:16;;;;;;;12.23;6.87;;;8.00;99.90;;;;;;5094945;28;20203;-69
2021/10/17 04:03:44;;;;;;;10.13;6.33;;;8.00;99.90;;;;;;5096023;28;20207;-68
2021/10/17 04:06:12;;;;;;;11.20;6.93;;;7.90;99.90;;;;;;5095502;28;20274;-68
2021/10/17 04:08:41;;;;;;;8.83;6.37;;;7.90;99.90;;;;;;5095611;28;20283;-71
2021/10/17 04:11:09;;;;;;;10.10;6.37;;;7.90;99.90;;;;;;5096195;28;20271;-69
2021/10/17 04:13:39;;;;;;;8.90;6.70;;;7.90;99.90;;;;;;5095397;28;20200;-68
2021/10/17 04:16:07;;;;;;;12.67;6.60;;;7.90;99.90;;;;;;5095242;28;20250;-69
2021/10/17 04:18:37;;;;;;;11.63;6.67;;;7.80;99.90;;;;;;5095255;28;20204;-69
2021/10/17 04:21:05;;;;;;;9.10;6.67;;;7.80;99.90;;;;;;5094973;28;20291;-69
2021/10/17 04:23:33;;;;;;;10.07;7.23;;;7.80;99.90;;;;;;5095038;28;20334;-69
2021/10/17 04:26:01;;;;;;;11.97;7.30;;;7.80;99.90;;;;;;5094834;28;20234;-69
2021/10/17 04:28:29;;;;;;;9.97;7.33;;;7.80;99.90;;;;;;5094303;28;20200;-67
2021/10/17 04:30:58;;;;;;;9.27;6.97;;;7.80;99.90;;;;;;5094577;28;20872;-69
2021/10/17 04:33:26;;;;;;;10.60;7.37;;;7.80;99.90;;;;;;5094805;28;20207;-69
2021/10/17 04:35:54;;;;;;;9.33;6.63;;;7.80;99.90;;;;;;5094995;28;20206;-70
2021/10/17 04:38:22;;;;;;;11.63;7.30;;;7.80;99.90;;;;;;5094746;28;20295;-69
2021/10/17 04:40:51;;;;;;;11.60;7.63;;;7.80;99.90;;;;;;5094538;28;20213;-68
2021/10/17 04:43:19;;;;;;;9.47;6.57;;;7.80;99.90;;;;;;5094891;28;20264;-69
2021/10/17 04:45:47;;;;;;;12.43;6.80;;;7.80;99.90;;;;;;5095053;28;20196;-69
2021/10/17 04:48:16;;;;;;;11.50;6.97;;;7.80;99.90;;;;;;5095049;28;20200;-69
2021/10/17 04:50:45;;;;;;;8.83;6.60;;;7.80;99.90;;;;;;5095296;28;20543;-69
2021/10/17 04:53:13;;;;;;;10.47;6.80;;;7.80;99.90;;;;;;5094427;28;20208;-68
2021/10/17 04:55:41;;;;;;;11.43;6.93;;;7.80;99.90;;;;;;5094262;28;20283;-69
2021/10/17 04:58:08;;;;;;;14.37;8.00;;;7.80;99.90;;;;;;5094235;28;20683;-69
2021/10/17 05:00:36;;;;;;;9.87;6.63;;;7.80;99.90;;;;;;5094467;28;20286;-68
2021/10/17 05:03:04;;;;;;;8.23;6.57;;;7.80;99.90;;;;;;5094443;28;20200;-69
2021/10/17 05:05:34;;;;;;;11.03;7.20;;;7.80;99.90;;;;;;5094222;28;20839;-69
2021/10/17 05:08:03;;;;;;;10.83;6.73;;;7.80;99.90;;;;;;5094205;28;20199;-69
2021/10/17 05:10:31;;;;;;;12.87;6.67;;;7.80;99.90;;;;;;5093488;28;20269;-69
2021/10/17 05:12:59;;;;;;;7.70;6.87;;;7.70;99.90;;;;;;5093786;28;20307;-70
2021/10/17 05:15:27;;;;;;;11.80;7.33;;;7.60;99.90;;;;;;5093645;28;20214;-69
2021/10/17 05:17:55;;;;;;;11.60;8.60;;;7.50;99.90;;;;;;5093784;28;20290;-69
2021/10/17 05:20:23;;;;;;;14.70;9.23;;;7.40;99.90;;;;;;5093893;28;20200;-70
2021/10/17 05:22:52;;;;;;;12.60;9.87;;;7.30;99.90;;;;;;5093646;28;20231;-68
2021/10/17 05:25:20;;;;;;;14.87;9.40;;;7.20;99.90;;;;;;5093518;28;20203;-71
2021/10/17 05:27:47;;;;;;;10.90;8.23;;;7.10;99.90;;;;;;5093797;28;20286;-70
2021/10/17 05:30:15;;;;;;;11.13;7.97;;;7.10;99.90;;;;;;5093449;28;20298;-68
2021/10/17 05:32:43;;;;;;;11.63;7.83;;;6.90;99.90;;;;;;5093664;28;20238;-69
2021/10/17 05:35:11;;;;;;;10.90;7.03;;;7.00;99.90;;;;;;5093227;28;20204;-69
2021/10/17 05:37:39;;;;;;;13.20;8.10;;;7.00;99.90;;;;;;5093553;28;20717;-69
2021/10/17 05:40:09;;;;;;;11.40;8.03;;;7.00;99.90;;;;;;5092479;28;20215;-69
2021/10/17 05:42:37;;;;;;;11.43;7.70;;;6.90;99.90;;;;;;5093065;28;20226;-67
2021/10/17 05:45:06;;;;;;;11.93;7.77;;;6.90;99.90;;;;;;5093401;28;20200;-69
2021/10/17 05:47:34;;;;;;;13.80;8.17;;;7.00;99.90;;;;;;5093308;28;20234;-68
2021/10/17 05:50:02;;;;;;;11.03;7.80;;;7.00;99.90;;;;;;5093384;28;20200;-70
2021/10/17 05:52:30;;;;;;;11.87;7.80;;;6.90;99.90;;;;;;5093053;28;20726;-69
2021/10/17 05:54:58;;;;;;;10.30;7.10;;;6.90;99.90;;;;;;5093181;28;20286;-69
2021/10/17 05:57:27;;;;;;;9.60;8.10;;;6.90;99.90;;;;;;5093160;28;20223;-69
2021/10/17 05:59:55;;;;;;;10.53;7.50;;;6.90;99.90;;;;;;5091557;28;20203;-69
2021/10/17 06:02:23;;;;;;;12.27;7.63;;;7.00;99.90;;;;;;5092768;28;20291;-69
2021/10/17 06:04:50;;;;;;;10.60;7.77;;;7.00;99.90;;;;;;5093020;28;20557;-70
2021/10/17 06:07:19;;;;;;;9.37;7.73;;;7.00;99.90;;;;;;5092939;28;20303;-69
2021/10/17 06:09:47;;;;;;;14.10;8.63;;;7.10;99.90;;;;;;5092725;28;20207;-69
2021/10/17 06:12:14;;;;;;;13.47;7.97;;;7.10;99.90;;;;;;5092782;28;20295;-69
2021/10/17 06:14:44;;;;;;;12.40;8.47;;;7.20;99.90;;;;;;5092914;28;20283;-65
2021/10/17 06:17:11;;;;;;;11.97;7.87;;;7.20;99.90;;;;;;5093046;28;20519;-66
2021/10/17 06:19:39;;;;;;;9.33;7.60;;;7.30;99.90;;;;;;5092435;28;20280;-66
2021/10/17 06:22:07;;;;;;;10.77;7.80;;;7.40;99.90;;;;;;5092928;28;20218;-66
2021/10/17 06:24:35;;;;;;;10.97;8.00;;;7.40;99.90;;;;;;5092811;28;20291;-65
2021/10/17 06:27:04;;;;;;;10.20;7.87;;;7.50;99.90;;;;;;5092785;28;20291;-65
2021/10/17 06:29:31;;;;;;;13.23;7.70;;;7.60;99.90;;;;;;5092783;28;20295;-65
2021/10/17 06:32:01;;;;;;;11.90;7.50;;;7.70;99.90;;;;;;5092622;28;20633;-65
2021/10/17 06:34:28;;;;;;;8.67;7.13;;;7.80;99.90;;;;;;5092239;28;20195;-67
2021/10/17 06:36:57;;;;;;;10.53;7.70;;;7.80;99.90;;;;;;5091941;28;20206;-65
2021/10/17 06:39:25;;;;;;;12.87;7.07;;;7.90;99.90;;;;;;5092694;28;20287;-65
2021/10/17 06:41:53;;;;;;;12.30;7.63;;;7.90;99.90;;;;;;5092446;28;20198;-65
2021/10/17 06:44:21;;;;;;;11.37;7.30;;;7.90;99.90;;;;;;5092163;28;20204;-65
2021/10/17 06:46:50;;;;;;;9.00;6.67;;;8.00;99.90;;;;;;5092537;28;20592;-65
2021/10/17 06:49:19;;;;;;;9.80;8.10;;;8.10;99.90;;;;;;5092666;28;20206;-64
2021/10/17 06:51:46;;;;;;;8.23;6.93;;;8.10;99.90;;;;;;5093688;28;20230;-65
2021/10/17 06:54:14;;;;;;;9.37;7.07;;;8.20;99.90;;;;;;5096542;28;20282;-65
2021/10/17 06:56:42;;;;;;;11.87;7.10;;;8.30;99.90;;;;;;5096388;28;20199;-67
2021/10/17 06:59:10;;;;;;;9.50;6.70;;;8.40;99.90;;;;;;5096606;28;20302;-66
2021/10/17 07:01:38;;;;;;;12.23;7.07;;;8.50;99.90;;;;;;5096558;28;20206;-65
2021/10/17 07:04:07;;;;;;;9.30;6.63;;;8.60;99.90;;;;;;5096377;28;20200;-64
2021/10/17 07:06:36;;;;;;;8.27;6.33;;;8.70;99.90;;;;;;5096482;28;20204;-66
2021/10/17 07:09:04;;;;;;;9.50;6.60;;;8.80;99.90;;;;;;5096100;28;20725;-65
2021/10/17 07:11:32;;;;;;;10.83;5.97;;;9.00;99.90;;;;;;5095927;28;20227;-64
2021/10/17 07:13:59;;;;;;;9.13;6.23;;;9.10;99.90;;;;;;5095903;28;20223;-64
2021/10/17 07:16:27;;;;;;;8.90;5.93;;;9.20;99.90;;;;;;5096230;28;20203;-64
2021/10/17 07:18:55;;;;;;;6.80;5.60;;;9.40;99.90;;;;;;5096421;28;20257;-65
2021/10/17 07:21:23;;;;;;;8.77;5.50;;;9.60;99.90;;;;;;5096468;28;20204;-68
2021/10/17 07:23:52;;;;;;;9.27;5.53;;;9.80;99.90;;;;;;5096266;28;20230;-65
2021/10/17 07:26:20;;;;;;;8.33;5.40;;;9.90;99.90;;;;;;5095926;28;20195;-66
2021/10/17 07:28:48;;;;;;;9.93;6.23;;;10.00;99.90;;;;;;5096082;28;20309;-67
2021/10/17 07:31:16;;;;;;;7.87;5.80;;;10.10;99.90;;;;;;5096122;28;20195;-66
2021/10/17 07:33:43;;;;;;;8.20;5.23;;;10.20;99.90;;;;;;5096133;28;20222;-67
2021/10/17 07:36:11;;;;;;;7.83;5.00;;;10.40;99.90;;;;;;5096257;28;20200;-66
2021/10/17 07:38:39;;;;;;;9.13;4.57;;;10.40;99.90;;;;;;5095973;28;20607;-66
2021/10/17 07:41:08;;;;;;;7.83;4.67;;;10.30;99.90;;;;;;5095619;28;20231;-66
2021/10/17 07:43:36;;;;;;;8.27;5.10;;;10.40;99.90;;;;;;5095525;28;20220;-67
2021/10/17 07:46:04;;;;;;;8.33;5.47;;;10.50;99.90;;;;;;5095708;28;20227;-67
2021/10/17 07:48:36;;;;;;;7.80;4.30;;;10.60;99.90;;;;;;5095860;28;20208;-66
2021/10/17 07:51:05;;;;;;;8.97;4.80;;;10.50;99.90;;;;;;5095932;28;20180;-66
2021/10/17 07:53:33;;;;;;;8.07;5.00;;;10.50;99.90;;;;;;5095426;28;20770;-67
2021/10/17 07:56:01;;;;;;;5.90;4.17;;;10.60;99.90;;;;;;5095018;28;20302;-67
2021/10/17 07:58:34;;;;;;;5.87;4.63;;;10.60;99.90;;;;;;5095495;28;20314;-67
2021/10/17 08:01:02;;;;;;;8.57;5.70;;;10.60;99.90;;;;;;5095627;28;20286;-66
2021/10/17 08:03:30;;;;;;;8.93;5.50;;;10.60;99.90;;;;;;5094309;28;20196;-66
2021/10/17 08:05:58;;;;;;;7.30;5.17;;;10.50;99.90;;;;;;5095501;28;20196;-66
2021/10/17 08:08:26;;;;;;;7.73;4.33;;;10.60;99.90;;;;;;5095411;28;20299;-68
2021/10/17 08:10:54;;;;;;;6.37;4.10;;;10.80;99.90;;;;;;5094678;28;20583;-67
2021/10/17 08:13:22;;;;;;;9.03;5.30;;;10.80;99.90;;;;;;5095020;28;20311;-66
2021/10/17 08:15:52;;;;;;;10.60;4.93;;;10.90;99.90;;;;;;5095131;28;20298;-66
2021/10/17 08:18:20;;;;;;;7.73;4.50;;;11.00;99.90;;;;;;5095112;28;20200;-68
2021/10/17 08:20:47;;;;;;;7.17;4.10;;;11.20;99.90;;;;;;5095141;28;20291;-68
2021/10/17 08:23:15;;;;;;;5.90;3.80;;;11.20;99.90;;;;;;5095254;28;20235;-67
2021/10/17 08:25:44;;;;;;;7.73;4.13;;;11.40;99.90;;;;;;5094970;28;20204;-67
2021/10/17 08:28:12;;;;;;;7.43;3.70;;;11.60;99.90;;;;;;5095172;28;20200;-68
2021/10/17 08:30:40;;;;;;;7.13;3.80;;;11.70;99.90;;;;;;5094987;28;20200;-67
2021/10/17 08:33:09;;;;;;;7.55;3.63;;;11.60;99.90;;;;;;5094897;28;20234;-67
2021/10/17 08:35:37;;;;;;;6.87;3.47;;;11.60;99.90;;;;;;5095016;28;20208;-68
2021/10/17 08:38:05;;;;;;;8.80;3.87;;;11.70;99.90;;;;;;5094934;28;20204;-66
2021/10/17 08:40:33;;;;;;;5.53;3.40;;;11.70;99.90;;;;;;5094397;28;20195;-67
2021/10/17 08:43:01;;;;;;;4.80;3.20;;;11.90;99.90;;;;;;5094714;28;20570;-66
2021/10/17 08:45:29;;;;;;;4.97;3.57;;;11.90;99.90;;;;;;5094695;28;20288;-67
2021/10/17 08:47:58;;;;;;;6.90;4.17;;;11.80;99.90;;;;;;5094669;28;20665;-66
2021/10/17 08:50:28;;;;;;;5.50;3.40;;;11.80;99.90;;;;;;5094622;28;20231;-66
2021/10/17 08:52:55;;;;;;;6.97;3.90;;;12.20;99.90;;;;;;5094526;28;20202;-66
2021/10/17 08:55:23;;;;;;;5.17;3.53;;;12.10;99.90;;;;;;5093884;28;20299;-67
2021/10/17 08:57:53;;;;;;;6.50;3.57;;;12.30;99.90;;;;;;5094369;28;20202;-66
2021/10/17 09:00:29;;;;;;;7.18;3.72;;;12.40;99.90;;;;;;5094100;28;20211;-67
2021/10/17 09:02:57;;;;;;;8.27;4.18;;;12.40;99.90;;;;;;5094380;28;20191;-66
2021/10/17 09:05:39;;;;;;;6.43;3.67;;;12.30;99.90;;;;;;5094054;28;20694;-66
2021/10/17 09:08:08;;;;;;;6.78;3.70;;;12.40;99.90;;;;;;5094092;28;20238;-66
2021/10/17 09:10:37;;;;;;;6.13;3.00;;;12.50;99.90;;;;;;5093569;28;20240;-66
2021/10/17 09:13:13;;;;;;;6.43;3.60;;;12.60;99.90;;;;;;5093746;28;20678;-67
2021/10/17 09:15:41;;;;;;;4.45;3.70;;;13.00;99.90;;;;;;5093898;28;20187;-67
2021/10/17 09:18:15;;;;;;;6.00;3.42;;;13.20;99.90;;;;;;5094036;28;20219;-67
2021/10/17 09:21:10;;;;;;;5.80;3.80;;;13.40;99.90;;;;;;5094229;28;20239;-67
2021/10/17 09:23:44;;;;;;;6.80;3.58;;;13.30;99.90;;;;;;5075579;28;20647;-66
2021/10/17 09:26:17;;;;;;;4.55;3.30;;;13.30;99.90;;;;;;5093793;28;20185;-68
2021/10/17 09:28:45;;;;;;;6.82;3.85;;;13.30;99.90;;;;;;5093988;28;20275;-66
2021/10/17 09:31:16;;;;;;;7.50;4.13;;;13.30;99.90;;;;;;5093561;28;20200;-67
2021/10/17 09:33:48;;;;;;;4.90;3.53;;;13.40;99.90;;;;;;5093529;28;20270;-66
2021/10/17 09:36:23;;;;;;;5.60;3.85;;;13.40;99.90;;;;;;5093898;28;20272;-68
2021/10/17 09:38:55;;;;;;;9.00;3.88;;;13.50;99.90;;;;;;5093729;28;20284;-67
2021/10/17 09:41:31;;;;;;;6.30;4.07;;;13.40;99.90;;;;;;5093286;28;20270;-67
2021/10/17 09:44:01;;;;;;;6.82;4.30;;;13.50;99.90;;;;;;5093768;28;20223;-66
2021/10/17 09:46:29;;;;;;;7.72;3.90;;;13.50;99.90;;;;;;5093675;28;20206;-67
2021/10/17 09:48:57;;;;;;;6.72;3.97;;;13.30;99.90;;;;;;5093544;28;20200;-67
2021/10/17 09:51:28;;;;;;;8.82;4.40;;;13.40;99.90;;;;;;5093463;28;20203;-68
2021/10/17 09:53:58;;;;;;;8.00;3.75;;;13.50;99.90;;;;;;5093499;28;20633;-66
2021/10/17 09:56:30;;;;;;;8.02;4.93;;;13.70;99.90;;;;;;5093048;28;20250;-66
2021/10/17 09:59:00;;;;;;;8.70;4.30;;;13.70;99.90;;;;;;5093366;28;20267;-67
2021/10/17 10:01:28;;;;;;;8.15;4.07;;;13.60;99.90;;;;;;5093238;28;20203;-67
2021/10/17 10:03:58;;;;;;;5.72;4.00;;;13.70;99.90;;;;;;5093282;28;20297;-66
2021/10/17 10:06:28;;;;;;;5.63;4.10;;;13.60;99.90;;;;;;5093282;28;20196;-67
2021/10/17 10:08:57;;;;;;;5.05;3.95;;;13.60;99.90;;;;;;5092938;28;20683;-66
2021/10/17 10:11:27;;;;;;;6.07;4.30;;;13.70;99.90;;;;;;5092649;28;20251;-67
2021/10/17 10:13:58;;;;;;;6.60;4.20;;;13.70;99.90;;;;;;5092954;28;20246;-66
2021/10/17 10:16:27;;;;;;;8.82;4.28;;;13.70;99.90;;;;;;5093021;28;20204;-67
2021/10/17 10:18:59;;;;;;;5.25;4.10;;;13.70;99.90;;;;;;5092812;28;20249;-66
2021/10/17 10:21:29;;;;;;;7.28;4.38;;;13.70;99.90;;;;;;5093089;28;20275;-67
2021/10/17 10:24:01;;;;;;;9.52;4.85;;;13.70;99.90;;;;;;5092794;28;20194;-66
2021/10/17 10:26:32;;;;;;;10.13;5.15;;;13.70;99.90;;;;;;5091831;28;20279;-66
2021/10/17 10:29:00;;;;;;;5.05;3.72;;;13.70;99.90;;;;;;5093026;28;20184;-67
2021/10/17 10:31:47;;;;;;;7.03;4.05;;;13.80;99.90;;;;;;5093013;28;20196;-67
2021/10/17 10:34:54;;;;;;;6.75;3.80;;;13.80;99.90;;;;;;5092787;28;20215;-66
2021/10/17 10:37:25;;;;;;;7.53;4.40;;;13.60;99.90;;;;;;5092674;28;20591;-67
2021/10/17 10:40:10;;;;;;;5.43;4.00;;;13.60;99.90;;;;;;5092604;28;20719;-66
2021/10/17 10:42:39;;;;;;;7.47;4.53;;;13.50;99.90;;;;;;5092555;28;20206;-66
2021/10/17 10:45:21;;;;;;;6.60;4.07;;;13.40;99.90;;;;;;5092746;28;20202;-66
2021/10/17 10:48:09;;;;;;;6.28;4.63;;;13.40;99.90;;;;;;5092753;28;20279;-66
2021/10/17 10:50:39;;;;;;;6.55;4.55;;;13.10;99.90;;;;;;5092583;28;20291;-66
2021/10/17 10:53:10;;;;;;;6.40;4.40;;;13.20;99.90;;;;;;5092801;28;20299;-68
2021/10/17 10:55:48;;;;;;;6.95;4.80;;;13.20;99.90;;;;;;5092595;28;20296;-66
2021/10/17 10:58:24;;;;;;;9.90;4.53;;;13.00;99.90;;;;;;5092530;28;20241;-66
2021/10/17 11:00:53;;;;;;;6.03;4.57;;;13.00;99.90;;;;;;5092414;28;20742;-66
2021/10/17 11:03:24;;;;;;;5.18;3.80;;;13.10;99.90;;;;;;5092229;28;20686;-66
2021/10/17 11:06:17;;;;;;;6.88;4.50;;;13.20;99.90;;;;;;5092319;28;20180;-66
2021/10/17 11:09:24;;;;;;;6.47;4.70;;;13.30;99.90;;;;;;5092282;28;20658;-67
2021/10/17 11:11:55;;;;;;;6.25;4.22;;;13.30;99.90;;;;;;5091945;28;20228;-67
2021/10/17 11:14:23;;;;;;;8.60;4.22;;;13.40;99.90;;;;;;5091925;28;20315;-66
2021/10/17 11:16:51;;;;;;;4.88;3.70;;;13.30;99.90;;;;;;5071932;28;20196;-67
2021/10/17 11:19:20;;;;;;;7.60;3.80;;;13.40;99.90;;;;;;5072073;28;20258;-68
2021/10/17 11:21:48;;;;;;;6.28;4.05;;;13.40;99.90;;;;;;5071954;28;20690;-66
2021/10/17 11:24:19;;;;;;;7.40;4.30;;;13.50;99.90;;;;;;5071951;28;20304;-66
2021/10/17 11:27:09;;;;;;;7.82;4.47;;;13.50;99.90;;;;;;5071875;28;20717;-66
2021/10/17 11:29:41;;;;;;;5.97;3.90;;;13.50;99.90;;;;;;5071735;28;20192;-66
2021/10/17 11:32:10;;;;;;;7.22;4.00;;;13.40;99.90;;;;;;5071775;28;20197;-66
2021/10/17 11:34:38;;;;;;;9.38;3.85;;;13.50;99.90;;;;;;5072159;28;20307;-66
2021/10/17 11:37:18;;;;;;;8.40;4.28;;;13.60;99.90;;;;;;5071899;28;20201;-66
2021/10/17 11:39:56;;;;;;;5.95;3.60;;;13.80;99.90;;;;;;5075255;28;20287;-67
2021/10/17 11:42:26;;;;;;;6.72;3.88;;;13.90;99.90;;;;;;5075393;28;20200;-67
2021/10/17 11:44:56;;;;;;;5.82;3.90;;;14.10;99.90;;;;;;5075604;28;20201;-67
2021/10/17 11:47:24;;;;;;;6.15;3.75;;;14.10;99.90;;;;;;5075724;28;20207;-67
2021/10/17 11:49:52;;;;;;;5.45;3.80;;;14.10;99.90;;;;;;5075651;28;20209;-66
2021/10/17 11:52:20;;;;;;;6.75;3.95;;;14.10;99.90;;;;;;5075586;28;20636;-66
2021/10/17 11:54:49;;;;;;;4.45;3.90;;;14.10;99.90;;;;;;5075371;28;20212;-66
2021/10/17 11:57:32;;;;;;;7.63;4.18;;;14.20;99.90;;;;;;5075376;28;20295;-66
2021/10/17 12:00:01;;;;;;;6.43;3.95;;;14.30;99.90;;;;;;5075738;28;20276;-66
2021/10/17 12:02:33;;;;;;;6.00;4.20;;;14.30;99.90;;;;;;5075201;28;20759;-66
2021/10/17 12:05:01;;;;;;;7.63;4.32;;;14.30;99.90;;;;;;5075383;28;20192;-66
2021/10/17 12:07:30;;;;;;;6.93;3.75;;;14.20;99.90;;;;;;5075010;28;20682;-67
2021/10/17 12:09:59;;;;;;;7.32;4.00;;;14.10;99.90;;;;;;5074842;28;20291;-66
2021/10/17 12:12:27;;;;;;;10.73;4.30;;;14.10;99.90;;;;;;5074854;28;20275;-66
2021/10/17 12:15:04;;;;;;;7.00;4.55;;;14.10;99.90;;;;;;5079253;28;20396;-67
2021/10/17 12:17:32;;;;;;;6.25;4.30;;;14.20;99.90;;;;;;5095416;28;20180;-66
2021/10/17 12:20:02;;;;;;;6.80;3.85;;;14.20;99.90;;;;;;5095384;28;20230;-68
2021/10/17 12:22:30;;;;;;;11.07;5.95;;;14.20;99.90;;;;;;5095322;28;20284;-67
2021/10/17 12:24:59;;;;;;;7.13;4.72;;;14.20;99.90;;;;;;5095141;28;20292;-67
2021/10/17 12:27:31;;;;;;;8.95;5.43;;;14.20;99.90;;;;;;5094925;28;20227;-66
2021/10/17 12:30:12;;;;;;;6.68;5.05;;;14.20;99.90;;;;;;5095120;28;20292;-67
2021/10/17 12:32:49;;;;;;;7.20;5.47;;;14.30;99.90;;;;;;5094957;28;20705;-67
2021/10/17 12:35:27;;;;;;;7.57;5.70;;;14.30;99.90;;;;;;5094574;28;20208;-67
2021/10/17 12:37:56;;;;;;;7.65;5.75;;;14.20;99.90;;;;;;5094896;28;20188;-67
2021/10/17 12:40:24;;;;;;;7.10;4.80;;;14.30;99.90;;;;;;5094855;28;20203;-65
2021/10/17 12:42:56;;;;;;;8.10;5.18;;;14.30;99.90;;;;;;5094661;28;20202;-66
2021/10/17 12:45:29;;;;;;;6.38;4.10;;;14.30;99.90;;;;;;5094661;28;20651;-66
2021/10/17 12:47:59;;;;;;;7.07;4.00;;;14.30;99.90;;;;;;5094851;28;20219;-67
2021/10/17 12:50:28;;;;;;;7.03;3.72;;;14.40;99.90;;;;;;5094272;28;20204;-66
2021/10/17 12:52:59;;;;;;;7.80;3.95;;;14.20;99.90;;;;;;5094566;28;20328;-66
2021/10/17 12:55:37;;;;;;;6.88;3.60;;;14.20;99.90;;;;;;5094227;28;20301;-67
2021/10/17 12:58:10;;;;;;;6.90;3.47;;;14.10;99.90;;;;;;5094412;28;20279;-67
2021/10/17 13:00:41;;;;;;;5.82;3.75;;;14.00;99.90;;;;;;5094576;28;20183;-66